createdAt,value
2023-05-01T00:03:37.744Z,44.18
2023-05-01T00:08:39.700Z,44.55
2023-05-01T00:13:41.831Z,45.34
2023-05-01T00:18:44.036Z,43.97
2023-05-01T00:23:46.152Z,44.21
2023-05-01T00:28:47.991Z,43.70
2023-05-01T00:33:49.810Z,43.45
2023-05-01T00:38:51.584Z,43.22
2023-05-01T00:43:54.268Z,44.74
2023-05-01T00:48:57.925Z,44.26
2023-05-01T00:54:00.851Z,45.01
2023-05-01T00:59:03.233Z,44.02
2023-05-01T01:04:05.309Z,43.70
2023-05-01T01:09:29.381Z,43.25
2023-05-01T01:14:43.039Z,42.77
2023-05-01T01:20:16.689Z,42.65
2023-05-01T01:25:54.279Z,42.07
2023-05-01T01:30:59.999Z,43.02
2023-05-01T01:36:08.146Z,42.68
2023-05-01T01:41:18.064Z,42.32
2023-05-01T01:46:22.086Z,42.28
2023-05-01T01:51:26.997Z,42.06
2023-05-01T01:56:31.002Z,41.81
2023-05-01T02:01:35.007Z,42.11
2023-05-01T02:06:39.575Z,43.22
2023-05-01T02:11:42.315Z,43.71
2023-05-01T02:16:45.161Z,43.05
2023-05-01T02:21:49.962Z,42.67
2023-05-01T02:27:07.365Z,44.12
2023-05-01T02:32:09.287Z,43.20
2023-05-01T02:37:12.309Z,42.83
2023-05-01T02:42:17.782Z,43.13
2023-05-01T02:47:22.277Z,43.74
2023-05-01T02:52:25.088Z,43.80
2023-05-01T02:57:36.647Z,43.83
2023-05-01T03:02:38.576Z,43.67
2023-05-01T03:07:40.502Z,44.01
2023-05-01T03:12:42.500Z,44.44
2023-05-01T03:17:44.327Z,44.14
2023-05-01T03:22:46.264Z,43.76
2023-05-01T03:27:49.471Z,43.67
2023-05-01T03:32:52.047Z,43.40
2023-05-01T03:38:00.479Z,43.03
2023-05-01T03:43:20.911Z,43.34
2023-05-01T03:48:23.335Z,43.12
2023-05-01T03:53:25.374Z,44.05
2023-05-01T03:58:27.524Z,46.51
2023-05-01T04:03:29.634Z,45.44
2023-05-01T04:08:31.918Z,44.64
2023-05-01T04:13:33.939Z,48.57
2023-05-01T04:18:37.087Z,45.95
2023-05-01T04:23:38.983Z,47.56
2023-05-01T04:28:41.044Z,49.58
2023-05-01T04:33:45.115Z,52.18
2023-05-01T04:38:47.261Z,48.49
2023-05-01T04:43:49.498Z,49.15
2023-05-01T04:48:53.897Z,47.38
2023-05-01T04:53:55.915Z,45.82
2023-05-01T04:59:01.397Z,45.02
2023-05-01T05:04:06.309Z,44.80
2023-05-01T05:09:08.604Z,49.06
2023-05-01T05:14:10.927Z,48.67
2023-05-01T05:19:13.577Z,51.46
2023-05-01T05:24:17.741Z,48.95
2023-05-01T05:29:19.622Z,48.94
2023-05-01T05:34:21.610Z,50.02
2023-05-01T05:39:23.846Z,48.49
2023-05-01T05:44:25.747Z,50.04
2023-05-01T05:49:27.792Z,49.35
2023-05-01T05:54:29.795Z,50.25
2023-05-01T05:59:31.952Z,46.94
2023-05-01T06:04:34.407Z,45.63
2023-05-01T06:09:37.242Z,45.85
2023-05-01T06:14:39.172Z,44.71
2023-05-01T06:19:41.507Z,44.27
2023-05-01T06:24:45.424Z,43.43
2023-05-01T06:29:47.479Z,48.93
2023-05-01T06:34:49.581Z,46.05
2023-05-01T06:39:51.559Z,44.66
2023-05-01T06:44:53.591Z,49.55
2023-05-01T06:49:57.117Z,51.33
2023-05-01T06:54:59.523Z,52.74
2023-05-01T07:00:01.574Z,60.29
2023-05-01T07:05:04.119Z,66.24
2023-05-01T07:10:06.464Z,57.71
2023-05-01T07:15:08.641Z,57.05
2023-05-01T07:20:11.506Z,55.24
2023-05-01T07:25:14.267Z,55.06
2023-05-01T07:30:16.216Z,51.73
2023-05-01T07:35:18.167Z,53.28
2023-05-01T07:40:20.026Z,55.42
2023-05-01T07:45:21.908Z,52.87
2023-05-01T07:50:25.087Z,64.55
2023-05-01T07:55:27.001Z,59.88
2023-05-01T08:00:29.633Z,57.37
2023-05-01T08:05:34.299Z,58.26
2023-05-01T08:10:36.498Z,56.37
2023-05-01T08:15:39.271Z,56.47
2023-05-01T08:20:41.135Z,55.05
2023-05-01T08:25:43.425Z,59.24
2023-05-01T08:30:45.900Z,54.21
2023-05-01T08:35:49.162Z,53.62
2023-05-01T08:40:57.021Z,57.28
2023-05-01T08:46:02.946Z,61.02
2023-05-01T08:51:06.110Z,62.21
2023-05-01T08:56:13.567Z,60.98
2023-05-01T09:01:16.920Z,59.93
2023-05-01T09:06:19.975Z,60.16
2023-05-01T09:11:23.208Z,63.75
2023-05-01T09:16:25.153Z,60.00
2023-05-01T09:21:28.364Z,57.78
2023-05-01T09:26:30.567Z,56.22
